Time;durP1;ratioP1;P1;durP2;ratioP2;P2;SDS_P1;SDS_P2;PMS_P1;PMS_P2;Temp;Humidity;BMP_temperature;BMP_pressure;BME280_temperature;BME280_humidity;BME280_pressure;Samples;Min_cycle;Max_cycle;Signal;HPM_P1;HPM_P2
2021/05/25 00:00:22;;;;;;;4.22;1.13;;;10.40;99.90;;;;;;5110084;28;20481;-67
2021/05/25 00:02:49;;;;;;;1.30;0.38;;;10.30;99.90;;;;;;5110391;28;20024;-67
2021/05/25 00:05:27;;;;;;;3.55;0.40;;;10.30;99.90;;;;;;5108672;28;20084;-68
2021/05/25 00:07:54;;;;;;;3.40;0.40;;;10.30;99.90;;;;;;5110395;28;20457;-67
2021/05/25 00:10:20;;;;;;;2.65;0.65;;;10.30;99.90;;;;;;5109810;28;20206;-67
2021/05/25 00:12:46;;;;;;;3.22;1.42;;;10.30;99.90;;;;;;5109086;28;20024;-67
2021/05/25 00:15:17;;;;;;;2.00;0.60;;;10.30;99.90;;;;;;5109821;28;20318;-67
2021/05/25 00:17:42;;;;;;;4.28;0.40;;;10.20;99.90;;;;;;5109151;28;20392;-68
2021/05/25 00:20:11;;;;;;;0.68;0.30;;;10.20;99.90;;;;;;5109788;28;20031;-68
2021/05/25 00:22:40;;;;;;;2.58;0.35;;;10.20;99.90;;;;;;5109257;28;20019;-67
2021/05/25 00:25:09;;;;;;;2.17;0.77;;;10.30;99.90;;;;;;5109860;28;20106;-67
2021/05/25 00:27:34;;;;;;;3.15;0.50;;;10.20;99.90;;;;;;5110883;28;20042;-67
2021/05/25 00:30:00;;;;;;;0.98;0.40;;;10.20;99.90;;;;;;5109811;28;20027;-68
2021/05/25 00:32:26;;;;;;;1.85;0.43;;;10.20;99.90;;;;;;5110623;28;20036;-68
2021/05/25 00:34:51;;;;;;;1.58;0.28;;;10.20;99.90;;;;;;5110201;28;20440;-67
2021/05/25 00:37:17;;;;;;;2.10;0.30;;;10.20;99.90;;;;;;5109804;28;20055;-67
2021/05/25 00:39:43;;;;;;;1.60;0.40;;;10.20;99.90;;;;;;5110246;28;20091;-67
2021/05/25 00:42:08;;;;;;;2.72;0.30;;;10.20;99.90;;;;;;5112988;28;20377;-67
2021/05/25 00:44:34;;;;;;;0.70;0.50;;;10.30;99.90;;;;;;5112715;28;20027;-67
2021/05/25 00:47:00;;;;;;;1.45;0.38;;;10.20;99.90;;;;;;5113466;28;20040;-68
2021/05/25 00:49:25;;;;;;;1.88;0.50;;;10.10;99.90;;;;;;5114103;28;20034;-67
2021/05/25 00:51:51;;;;;;;1.63;0.60;;;10.10;99.90;;;;;;5112549;28;20135;-67
2021/05/25 00:54:17;;;;;;;2.28;0.57;;;10.10;99.90;;;;;;5111927;28;20106;-67
2021/05/25 00:56:43;;;;;;;2.97;0.40;;;10.00;99.90;;;;;;5114012;28;20073;-68
2021/05/25 00:59:09;;;;;;;0.60;0.35;;;10.10;99.90;;;;;;5111868;28;20091;-67
2021/05/25 01:01:36;;;;;;;1.10;0.32;;;10.00;99.90;;;;;;5112456;28;20482;-66
2021/05/25 01:04:03;;;;;;;2.65;1.45;;;10.10;99.90;;;;;;5113169;28;20023;-67
2021/05/25 01:06:28;;;;;;;1.02;0.50;;;10.00;99.90;;;;;;5113753;28;20051;-66
2021/05/25 01:08:57;;;;;;;2.50;0.50;;;10.00;99.90;;;;;;5113632;28;20062;-66
2021/05/25 01:11:23;;;;;;;2.35;0.60;;;10.10;99.90;;;;;;5111715;28;20068;-67
2021/05/25 01:13:52;;;;;;;1.55;0.50;;;10.00;99.90;;;;;;5113497;28;20103;-67
2021/05/25 01:16:18;;;;;;;1.95;0.50;;;10.10;99.90;;;;;;5112437;28;20376;-67
2021/05/25 01:18:45;;;;;;;3.70;0.45;;;10.10;99.90;;;;;;5111819;28;20564;-69
2021/05/25 01:21:12;;;;;;;2.05;0.55;;;10.10;99.90;;;;;;5111236;28;20051;-68
2021/05/25 01:23:39;;;;;;;2.30;0.68;;;10.00;99.90;;;;;;5113373;28;20434;-68
2021/05/25 01:26:06;;;;;;;1.20;0.77;;;10.00;99.90;;;;;;5112542;28;20108;-69
2021/05/25 01:28:33;;;;;;;4.60;1.00;;;10.00;99.90;;;;;;5111757;28;20031;-68
2021/05/25 01:30:59;;;;;;;2.88;0.50;;;9.90;99.90;;;;;;5113200;28;20020;-67
2021/05/25 01:33:28;;;;;;;2.45;1.55;;;9.90;99.90;;;;;;5112674;28;20024;-67
2021/05/25 01:35:54;;;;;;;2.20;0.60;;;10.00;99.90;;;;;;5113273;28;20417;-67
2021/05/25 01:38:21;;;;;;;2.97;0.93;;;10.00;99.90;;;;;;5112558;28;20111;-67
2021/05/25 01:40:47;;;;;;;2.90;0.80;;;10.00;99.90;;;;;;5111749;28;20043;-67
2021/05/25 01:43:14;;;;;;;0.82;0.25;;;10.00;99.90;;;;;;5112688;28;20078;-67
2021/05/25 01:45:40;;;;;;;1.83;0.50;;;10.00;99.90;;;;;;5111776;28;20030;-67
2021/05/25 01:48:07;;;;;;;1.83;0.63;;;10.00;99.90;;;;;;5093259;28;20085;-67
2021/05/25 01:50:34;;;;;;;2.17;0.63;;;10.00;99.90;;;;;;5092590;28;20434;-67
2021/05/25 01:53:06;;;;;;;2.38;1.33;;;10.00;99.90;;;;;;5091609;28;20067;-67
2021/05/25 01:55:33;;;;;;;0.85;0.68;;;10.00;99.90;;;;;;5094714;28;20019;-67
2021/05/25 01:58:19;;;;;;;2.13;0.95;;;10.10;99.90;;;;;;5107247;28;20032;-67
2021/05/25 02:01:04;;;;;;;1.25;0.30;;;10.10;99.90;;;;;;5090082;28;20074;-67
2021/05/25 02:03:30;;;;;;;2.00;0.45;;;10.10;99.90;;;;;;5092593;28;20036;-66
2021/05/25 02:05:57;;;;;;;3.30;0.60;;;10.20;99.90;;;;;;5092504;28;20054;-67
2021/05/25 02:08:23;;;;;;;1.75;0.63;;;10.20;99.90;;;;;;5090199;28;20032;-67
2021/05/25 02:10:54;;;;;;;6.30;0.93;;;10.30;99.90;;;;;;5091982;28;20397;-67
2021/05/25 02:13:28;;;;;;;2.78;0.63;;;10.20;99.90;;;;;;5089812;28;20024;-67
2021/05/25 02:15:56;;;;;;;1.95;0.43;;;10.20;99.90;;;;;;5091659;28;20032;-67
2021/05/25 02:18:28;;;;;;;2.70;0.40;;;10.20;99.90;;;;;;5090773;28;20109;-67
2021/05/25 02:20:57;;;;;;;4.53;0.57;;;10.20;99.90;;;;;;5091491;28;20028;-66
2021/05/25 02:23:22;;;;;;;1.40;0.30;;;10.10;99.90;;;;;;5091276;28;20024;-67
2021/05/25 02:25:49;;;;;;;5.78;1.30;;;10.10;99.90;;;;;;5091377;28;20092;-67
2021/05/25 02:28:15;;;;;;;3.53;0.70;;;10.10;99.90;;;;;;5090579;28;20496;-67
2021/05/25 02:30:41;;;;;;;0.70;0.30;;;10.10;99.90;;;;;;5091452;28;20035;-67
2021/05/25 02:33:14;;;;;;;2.25;0.95;;;10.20;99.90;;;;;;5090781;28;20043;-68
2021/05/25 02:35:41;;;;;;;1.73;0.35;;;10.10;99.90;;;;;;5091397;28;20114;-68
2021/05/25 02:38:09;;;;;;;4.32;0.40;;;10.20;99.90;;;;;;5090646;28;20039;-66
2021/05/25 02:40:35;;;;;;;6.30;0.68;;;10.20;99.90;;;;;;5091185;28;20032;-67
2021/05/25 02:43:01;;;;;;;1.00;0.30;;;10.20;99.90;;;;;;5090844;28;20051;-65
2021/05/25 02:45:27;;;;;;;2.33;0.38;;;10.30;99.90;;;;;;5088838;28;20040;-66
2021/05/25 02:47:53;;;;;;;1.90;0.47;;;10.30;99.90;;;;;;5091297;28;20046;-67
2021/05/25 02:50:20;;;;;;;1.02;0.20;;;10.30;99.90;;;;;;5090550;28;20380;-67
2021/05/25 02:52:48;;;;;;;1.95;0.35;;;10.20;99.90;;;;;;5091333;28;20027;-67
2021/05/25 02:55:34;;;;;;;3.85;0.30;;;10.30;99.90;;;;;;5090016;28;20027;-66
2021/05/25 02:58:02;;;;;;;1.42;0.50;;;10.20;99.90;;;;;;5091143;28;20374;-67
2021/05/25 03:00:31;;;;;;;3.35;0.80;;;10.20;99.90;;;;;;5089941;28;20225;-66
2021/05/25 03:02:57;;;;;;;0.88;0.43;;;10.30;99.90;;;;;;5091091;28;20061;-65
2021/05/25 03:05:24;;;;;;;0.63;0.30;;;10.30;99.90;;;;;;5089777;28;20127;-67
2021/05/25 03:07:56;;;;;;;0.60;0.40;;;10.30;99.90;;;;;;5090838;28;20115;-67
2021/05/25 03:10:28;;;;;;;1.65;0.40;;;10.30;99.90;;;;;;5090175;28;20024;-66
2021/05/25 03:12:54;;;;;;;2.97;0.43;;;10.20;99.90;;;;;;5091004;28;20111;-66
2021/05/25 03:15:26;;;;;;;2.85;0.47;;;10.10;99.90;;;;;;5088667;28;20075;-66
2021/05/25 03:17:52;;;;;;;4.47;0.40;;;10.10;99.90;;;;;;5091101;28;20364;-66
2021/05/25 03:20:19;;;;;;;3.17;0.38;;;10.10;99.90;;;;;;5088532;28;20119;-66
2021/05/25 03:22:44;;;;;;;1.38;0.30;;;10.20;99.90;;;;;;5090832;28;20024;-66
2021/05/25 03:25:12;;;;;;;3.40;0.45;;;10.10;99.90;;;;;;5088370;28;20123;-66
2021/05/25 03:27:38;;;;;;;3.05;0.55;;;10.10;99.90;;;;;;5090537;28;20031;-66
2021/05/25 03:30:06;;;;;;;6.20;1.52;;;10.20;99.90;;;;;;5090711;28;20023;-67
2021/05/25 03:32:32;;;;;;;1.85;0.68;;;10.20;99.90;;;;;;5090381;28;20024;-68
2021/05/25 03:34:58;;;;;;;2.90;0.50;;;10.10;99.90;;;;;;5090544;28;20050;-67
2021/05/25 03:37:23;;;;;;;1.52;0.30;;;10.10;99.90;;;;;;5088392;28;20020;-67
2021/05/25 03:39:49;;;;;;;4.72;0.55;;;10.10;99.90;;;;;;5088878;28;20040;-66
2021/05/25 03:42:15;;;;;;;1.90;0.30;;;10.10;99.90;;;;;;5090131;28;20099;-66
2021/05/25 03:44:40;;;;;;;2.08;0.20;;;10.00;99.90;;;;;;5090156;28;20115;-66
2021/05/25 03:47:06;;;;;;;3.63;0.60;;;10.00;99.90;;;;;;5089120;28;20518;-66
2021/05/25 03:49:32;;;;;;;4.25;0.45;;;10.00;99.90;;;;;;5090006;28;20501;-66
2021/05/25 03:51:57;;;;;;;2.10;0.35;;;10.10;99.90;;;;;;5090431;28;20031;-66
2021/05/25 03:54:59;;;;;;;3.38;0.25;;;10.00;99.90;;;;;;5089406;28;20461;-66
2021/05/25 03:58:47;;;;;;;1.48;0.30;;;10.10;99.90;;;;;;5088053;28;20071;-66
2021/05/25 04:00:00;;;;;;;1.90;0.50;;;10.10;99.90;;;;;;5089963;28;20105;-66
2021/05/25 04:02:26;;;;;;;1.75;0.40;;;10.10;99.90;;;;;;5089362;28;20388;-66
2021/05/25 04:04:51;;;;;;;1.17;0.43;;;10.10;99.90;;;;;;5088440;28;20028;-68
2021/05/25 04:07:17;;;;;;;3.33;0.50;;;10.10;99.90;;;;;;5089312;28;20077;-65
2021/05/25 04:09:43;;;;;;;1.00;0.30;;;10.10;99.90;;;;;;5090364;28;20024;-66
2021/05/25 04:12:09;;;;;;;3.97;0.50;;;10.10;99.90;;;;;;5089767;28;20353;-67
2021/05/25 04:14:34;;;;;;;5.07;0.60;;;10.20;99.90;;;;;;5089693;28;20476;-67
2021/05/25 04:17:00;;;;;;;1.17;0.50;;;10.10;99.90;;;;;;5093797;28;20035;-66
2021/05/25 04:19:26;;;;;;;2.08;0.70;;;10.10;99.90;;;;;;5091729;28;20086;-66
2021/05/25 04:21:51;;;;;;;2.60;0.38;;;10.00;99.90;;;;;;5092788;28;20077;-66
2021/05/25 04:24:17;;;;;;;2.65;0.40;;;10.10;99.90;;;;;;5093103;28;20026;-66
2021/05/25 04:26:43;;;;;;;3.50;0.45;;;10.00;99.90;;;;;;5093737;28;20086;-66
2021/05/25 04:29:09;;;;;;;10.60;0.55;;;10.00;99.90;;;;;;5093972;28;20024;-67
2021/05/25 04:31:35;;;;;;;1.13;0.28;;;10.00;99.90;;;;;;5093360;28;20028;-67
2021/05/25 04:34:01;;;;;;;2.70;0.60;;;10.00;99.90;;;;;;5092171;28;20024;-67
2021/05/25 04:36:27;;;;;;;2.17;0.52;;;10.00;99.90;;;;;;5092914;28;20057;-68
2021/05/25 04:38:52;;;;;;;2.00;0.50;;;10.00;99.90;;;;;;5092708;28;20024;-67
2021/05/25 04:41:18;;;;;;;1.70;0.68;;;10.00;99.90;;;;;;5093461;28;20030;-69
2021/05/25 04:43:44;;;;;;;2.83;0.68;;;10.00;99.90;;;;;;5092430;28;20030;-67
2021/05/25 04:46:09;;;;;;;4.50;0.40;;;10.10;99.90;;;;;;5092155;28;20422;-67
2021/05/25 04:48:35;;;;;;;2.70;0.38;;;10.00;99.90;;;;;;5092879;28;20028;-67
2021/05/25 04:51:01;;;;;;;2.33;0.30;;;10.10;99.90;;;;;;5093395;28;20133;-66
2021/05/25 04:53:26;;;;;;;1.45;0.50;;;10.10;99.90;;;;;;5092561;28;20031;-67
2021/05/25 04:55:52;;;;;;;9.57;0.55;;;10.20;99.90;;;;;;5093173;28;20233;-67
2021/05/25 04:58:18;;;;;;;3.92;1.02;;;10.20;99.90;;;;;;5091096;28;20077;-66
2021/05/25 05:00:45;;;;;;;5.03;0.40;;;10.30;99.90;;;;;;5093070;28;20024;-66
2021/05/25 05:03:10;;;;;;;1.73;0.40;;;10.40;99.90;;;;;;5091827;28;20096;-67
2021/05/25 05:05:36;;;;;;;1.65;0.30;;;10.30;99.90;;;;;;5090954;28;20469;-67
2021/05/25 05:08:05;;;;;;;1.80;0.30;;;10.30;99.90;;;;;;5091642;28;20036;-66
2021/05/25 05:10:31;;;;;;;5.38;0.50;;;10.20;99.90;;;;;;5092205;28;20020;-67
2021/05/25 05:12:56;;;;;;;3.05;0.40;;;10.20;99.90;;;;;;5092854;28;20028;-67
2021/05/25 05:15:22;;;;;;;4.97;0.50;;;10.30;99.90;;;;;;5092254;28;20028;-68
2021/05/25 05:17:49;;;;;;;1.17;0.20;;;10.20;99.90;;;;;;5091001;28;20052;-68
2021/05/25 05:20:15;;;;;;;2.28;0.40;;;10.30;99.90;;;;;;5093220;28;20021;-68
2021/05/25 05:22:41;;;;;;;2.45;0.40;;;10.30;99.90;;;;;;5091522;28;20024;-68
2021/05/25 05:25:09;;;;;;;1.42;0.32;;;10.40;99.90;;;;;;5090875;28;20036;-67
2021/05/25 05:27:34;;;;;;;1.65;0.30;;;10.40;99.90;;;;;;5089561;28;20140;-67
2021/05/25 05:30:00;;;;;;;3.08;0.85;;;10.40;99.90;;;;;;5092524;28;20028;-67
2021/05/25 05:32:26;;;;;;;2.35;1.00;;;10.40;99.90;;;;;;5092647;28;20035;-66
2021/05/25 05:34:52;;;;;;;2.15;0.40;;;10.40;99.90;;;;;;5101357;28;20085;-66
2021/05/25 05:37:17;;;;;;;4.78;0.60;;;10.30;99.90;;;;;;5090929;28;20031;-65
2021/05/25 05:39:44;;;;;;;2.80;0.30;;;10.40;99.90;;;;;;5089435;28;20145;-64
2021/05/25 05:42:10;;;;;;;1.73;0.40;;;10.80;99.90;;;;;;5088231;28;20025;-67
2021/05/25 05:44:35;;;;;;;4.05;0.65;;;10.70;99.90;;;;;;5089120;28;20333;-67
2021/05/25 05:47:01;;;;;;;1.38;0.60;;;10.40;99.90;;;;;;5089190;28;20085;-67
2021/05/25 05:49:27;;;;;;;3.58;0.40;;;10.20;99.90;;;;;;5090219;28;20037;-67
2021/05/25 05:51:52;;;;;;;1.83;0.47;;;10.10;99.90;;;;;;5091135;28;20024;-69
2021/05/25 05:54:19;;;;;;;2.38;0.45;;;10.00;99.90;;;;;;5091253;28;20028;-66
2021/05/25 05:56:47;;;;;;;2.22;0.38;;;10.10;99.90;;;;;;5090691;28;20028;-68
2021/05/25 05:59:14;;;;;;;2.58;0.30;;;10.00;99.90;;;;;;5091830;28;20077;-68
2021/05/25 06:01:40;;;;;;;1.08;0.28;;;9.90;99.90;;;;;;5101403;28;20048;-68
2021/05/25 06:04:05;;;;;;;2.58;0.60;;;10.00;99.90;;;;;;5110698;28;20028;-68
2021/05/25 06:06:31;;;;;;;3.13;0.20;;;10.00;99.90;;;;;;5108667;28;20047;-67
2021/05/25 06:08:57;;;;;;;2.45;0.52;;;10.00;99.90;;;;;;5111321;28;20383;-68
2021/05/25 06:11:23;;;;;;;1.85;0.30;;;9.90;99.90;;;;;;5110337;28;20060;-69
2021/05/25 06:13:49;;;;;;;0.98;0.30;;;9.90;99.90;;;;;;5111204;28;20031;-66
2021/05/25 06:16:14;;;;;;;3.38;0.40;;;10.00;99.90;;;;;;5110687;28;20043;-69
2021/05/25 06:18:40;;;;;;;5.18;0.40;;;10.10;99.90;;;;;;5108411;28;20138;-68
2021/05/25 06:21:06;;;;;;;2.38;0.70;;;10.20;99.90;;;;;;5110630;28;20080;-68
2021/05/25 06:23:33;;;;;;;2.80;0.40;;;10.20;99.90;;;;;;5107894;28;20170;-67
2021/05/25 06:25:59;;;;;;;0.60;0.35;;;10.10;99.90;;;;;;5109945;28;20028;-68
2021/05/25 06:28:26;;;;;;;2.55;0.82;;;10.20;99.90;;;;;;5071513;28;20165;-68
2021/05/25 06:30:53;;;;;;;4.80;0.55;;;10.20;99.90;;;;;;5090017;28;20085;-65
2021/05/25 06:33:18;;;;;;;8.55;1.60;;;10.40;99.90;;;;;;5098352;28;20028;-66
2021/05/25 06:35:44;;;;;;;1.70;0.28;;;10.50;99.90;;;;;;5109859;28;20356;-67
2021/05/25 06:38:10;;;;;;;2.83;0.50;;;10.50;99.90;;;;;;5106553;28;20028;-67
2021/05/25 06:40:36;;;;;;;6.10;0.57;;;10.50;99.90;;;;;;5107890;28;20650;-66
2021/05/25 06:43:02;;;;;;;0.57;0.30;;;10.60;99.90;;;;;;5109169;28;20030;-66
2021/05/25 06:45:28;;;;;;;4.85;0.55;;;10.60;99.90;;;;;;5109247;28;20069;-67
2021/05/25 06:47:54;;;;;;;0.80;0.20;;;10.60;99.90;;;;;;5108178;28;20476;-67
2021/05/25 06:50:20;;;;;;;3.63;0.38;;;10.50;99.90;;;;;;5108010;28;20036;-67
2021/05/25 06:52:46;;;;;;;1.27;0.60;;;10.40;99.90;;;;;;5107862;28;20122;-67
2021/05/25 06:55:13;;;;;;;5.70;0.32;;;10.50;99.90;;;;;;5108561;28;20111;-68
2021/05/25 06:57:39;;;;;;;1.23;0.40;;;10.40;99.90;;;;;;5107759;28;20032;-69
2021/05/25 07:00:07;;;;;;;2.95;0.30;;;10.40;99.90;;;;;;5108407;28;20149;-67
2021/05/25 07:02:33;;;;;;;0.77;0.15;;;10.40;99.90;;;;;;5106181;28;20135;-65
2021/05/25 07:04:59;;;;;;;0.57;0.17;;;10.40;99.90;;;;;;5107491;28;20110;-69
2021/05/25 07:07:25;;;;;;;2.85;0.30;;;10.40;99.90;;;;;;5100407;28;20027;-70
2021/05/25 07:09:51;;;;;;;0.57;0.30;;;10.30;99.90;;;;;;5107170;28;20042;-67
2021/05/25 07:12:17;;;;;;;1.90;0.20;;;10.30;99.90;;;;;;5108015;28;20047;-74
2021/05/25 07:14:43;;;;;;;3.30;0.30;;;10.30;99.90;;;;;;5108303;28;20024;-69
2021/05/25 07:17:08;;;;;;;5.10;0.43;;;10.30;99.90;;;;;;5106690;28;20023;-64
2021/05/25 07:19:34;;;;;;;2.75;0.50;;;10.70;99.90;;;;;;5105799;28;20054;-63
2021/05/25 07:22:00;;;;;;;2.50;0.40;;;11.50;99.90;;;;;;5106584;28;20054;-63
2021/05/25 07:24:26;;;;;;;1.05;0.30;;;11.40;99.90;;;;;;5107379;28;20024;-65
2021/05/25 07:26:52;;;;;;;2.75;0.25;;;11.40;99.90;;;;;;5107512;28;20393;-67
2021/05/25 07:29:18;;;;;;;1.33;0.43;;;11.30;99.90;;;;;;5107121;28;20046;-74
2021/05/25 07:31:44;;;;;;;1.90;0.20;;;10.80;99.90;;;;;;5108739;28;20046;-68
2021/05/25 07:34:10;;;;;;;1.85;0.20;;;10.60;99.90;;;;;;5108904;28;20020;-68
2021/05/25 07:36:36;;;;;;;1.45;0.50;;;10.60;99.90;;;;;;5108567;28;20453;-66
2021/05/25 07:39:03;;;;;;;0.95;0.20;;;10.50;99.90;;;;;;5108913;28;20031;-69
2021/05/25 07:41:29;;;;;;;3.05;0.38;;;10.50;99.90;;;;;;5106116;28;20034;-67
2021/05/25 07:43:55;;;;;;;1.80;0.30;;;10.50;99.90;;;;;;5109032;28;20099;-69
2021/05/25 07:46:24;;;;;;;3.67;0.20;;;10.50;99.90;;;;;;5107534;28;20118;-69
2021/05/25 07:48:50;;;;;;;1.30;0.17;;;10.50;99.90;;;;;;5107127;28;20036;-66
2021/05/25 07:51:17;;;;;;;1.02;0.20;;;10.50;99.90;;;;;;5107431;28;20596;-73
2021/05/25 07:53:43;;;;;;;4.95;0.17;;;10.70;99.90;;;;;;5108388;28;20513;-67
2021/05/25 07:56:09;;;;;;;2.67;0.28;;;10.50;99.90;;;;;;5108174;28;20027;-68
2021/05/25 07:58:34;;;;;;;2.67;1.45;;;10.50;99.90;;;;;;5107066;28;20024;-68
2021/05/25 08:01:00;;;;;;;0.80;0.13;;;10.40;99.90;;;;;;5108954;28;20476;-69
2021/05/25 08:03:26;;;;;;;0.70;0.10;;;10.20;99.90;;;;;;5094374;28;20031;-69
2021/05/25 08:05:51;;;;;;;0.57;0.10;;;10.20;99.90;;;;;;5087562;28;20047;-67
2021/05/25 08:08:17;;;;;;;1.52;0.22;;;10.30;99.90;;;;;;5098656;28;20422;-67
2021/05/25 08:10:43;;;;;;;1.52;0.38;;;10.30;99.90;;;;;;5108959;28;20039;-67
2021/05/25 08:13:09;;;;;;;1.98;0.20;;;10.30;99.90;;;;;;5107451;28;20095;-66
2021/05/25 08:15:36;;;;;;;1.77;0.15;;;10.40;99.90;;;;;;5106812;28;20054;-68
2021/05/25 08:18:11;;;;;;;0.85;0.20;;;10.50;99.90;;;;;;5106918;28;20124;-68
2021/05/25 08:20:37;;;;;;;1.23;0.30;;;10.50;99.90;;;;;;5105688;28;20100;-68
2021/05/25 08:23:06;;;;;;;1.70;0.28;;;10.50;99.90;;;;;;5108722;28;20374;-67
2021/05/25 08:25:32;;;;;;;1.35;0.20;;;10.50;99.90;;;;;;5108196;28;20143;-67
2021/05/25 08:28:01;;;;;;;2.22;0.40;;;10.50;99.90;;;;;;5107374;28;20028;-67
2021/05/25 08:30:28;;;;;;;1.63;0.20;;;10.50;99.90;;;;;;5108467;28;20027;-67
2021/05/25 08:32:55;;;;;;;1.23;0.20;;;10.40;99.90;;;;;;5104816;28;20099;-68
2021/05/25 08:35:23;;;;;;;0.55;0.20;;;10.50;99.90;;;;;;5108242;28;20415;-66
2021/05/25 08:37:53;;;;;;;6.53;0.40;;;11.40;99.90;;;;;;5106901;28;20380;-66
2021/05/25 08:40:20;;;;;;;0.75;0.30;;;12.80;99.90;;;;;;5106873;28;20074;-66
2021/05/25 08:42:47;;;;;;;3.33;0.38;;;12.20;99.90;;;;;;5108161;28;20064;-66
2021/05/25 08:45:14;;;;;;;0.63;0.20;;;12.00;99.90;;;;;;5108272;28;20024;-66
2021/05/25 08:47:41;;;;;;;2.83;0.85;;;11.80;99.90;;;;;;5107735;28;20035;-66
2021/05/25 08:50:09;;;;;;;1.80;0.10;;;11.90;99.90;;;;;;5106978;28;20446;-66
2021/05/25 08:52:36;;;;;;;0.88;0.20;;;11.80;99.90;;;;;;5106930;28;20027;-67
2021/05/25 08:55:03;;;;;;;1.75;0.35;;;12.30;99.90;;;;;;5108310;28;20055;-66
2021/05/25 08:57:29;;;;;;;0.30;0.22;;;12.50;99.90;;;;;;5106520;28;20381;-66
2021/05/25 08:59:55;;;;;;;1.88;0.20;;;12.20;99.90;;;;;;5108574;28;20034;-66
2021/05/25 09:02:21;;;;;;;2.22;0.30;;;12.40;99.90;;;;;;5109959;28;20457;-67
2021/05/25 09:05:18;;;;;;;0.73;0.55;;;13.10;99.90;;;;;;5108793;28;20059;-66
2021/05/25 09:07:54;;;;;;;1.35;0.25;;;12.70;99.90;;;;;;5112524;28;20028;-66
2021/05/25 09:10:22;;;;;;;1.13;0.05;;;13.00;99.90;;;;;;5110935;28;20098;-66
2021/05/25 09:12:53;;;;;;;1.48;0.20;;;13.00;99.90;;;;;;5109791;28;20031;-66
2021/05/25 09:15:37;;;;;;;0.73;0.20;;;13.60;99.90;;;;;;5108593;28;20032;-67
2021/05/25 09:18:07;;;;;;;1.60;0.10;;;13.60;99.90;;;;;;5090960;28;20422;-65
2021/05/25 09:20:46;;;;;;;2.70;0.20;;;13.30;99.90;;;;;;5090655;28;20169;-66
2021/05/25 09:23:17;;;;;;;5.75;0.20;;;13.30;99.90;;;;;;5091500;28;20028;-65
2021/05/25 09:26:07;;;;;;;2.80;0.25;;;13.40;99.90;;;;;;5091350;28;20142;-66
2021/05/25 09:28:57;;;;;;;0.25;0.10;;;12.70;99.90;;;;;;5088942;28;20139;-66
2021/05/25 09:31:47;;;;;;;0.47;0.20;;;12.80;99.90;;;;;;5088090;28;20497;-66
2021/05/25 09:34:23;;;;;;;0.30;0.20;;;12.70;99.90;;;;;;5079809;28;20036;-66
2021/05/25 09:37:08;;;;;;;3.10;0.25;;;13.30;99.90;;;;;;5108690;28;20169;-66
2021/05/25 09:39:40;;;;;;;2.92;0.30;;;13.20;99.90;;;;;;5088602;28;20085;-67
2021/05/25 09:42:07;;;;;;;;;;;13.50;99.90;;;;;;5091450;28;20024;-66
2021/05/25 09:44:36;;;;;;;1.23;0.10;;;13.30;99.90;;;;;;5106732;28;19919;-66
2021/05/25 09:47:05;;;;;;;1.75;0.10;;;12.90;99.90;;;;;;5109761;28;20042;-66
2021/05/25 09:49:31;;;;;;;3.35;0.30;;;12.50;99.90;;;;;;5108721;28;20169;-66
2021/05/25 09:52:08;;;;;;;2.90;0.50;;;12.10;99.90;;;;;;5109678;28;20069;-67
2021/05/25 09:54:34;;;;;;;1.85;0.20;;;12.00;99.90;;;;;;5109739;28;20123;-67
2021/05/25 09:57:05;;;;;;;0.82;0.20;;;11.80;99.90;;;;;;5110929;28;20378;-69
2021/05/25 09:59:36;;;;;;;0.90;0.47;;;11.60;99.90;;;;;;5109060;28;20481;-69
2021/05/25 10:02:20;;;;;;;0.87;0.20;;;11.50;99.90;;;;;;5110734;28;20028;-68
2021/05/25 10:05:05;;;;;;;2.35;0.32;;;11.40;99.90;;;;;;5111023;28;20031;-69
2021/05/25 10:07:32;;;;;;;2.35;0.15;;;11.30;99.90;;;;;;5098636;28;20485;-66
2021/05/25 10:09:58;;;;;;;2.30;0.20;;;11.20;99.90;;;;;;5071954;28;20114;-68
2021/05/25 10:12:27;;;;;;;1.88;0.30;;;11.10;99.90;;;;;;5090087;28;20028;-69
2021/05/25 10:14:53;;;;;;;2.13;0.20;;;11.10;99.90;;;;;;5089716;28;20430;-70
2021/05/25 10:20:07;;;;;;;3.10;0.40;;;10.90;99.90;;;;;;5068414;28;20055;-69
2021/05/25 10:22:35;;;;;;;0.60;0.20;;;11.10;99.90;;;;;;5088248;28;20032;-69
2021/05/25 10:25:02;;;;;;;1.92;0.40;;;11.20;99.90;;;;;;5089871;28;20047;-68
2021/05/25 10:27:29;;;;;;;1.48;0.20;;;11.20;99.90;;;;;;5089318;28;20048;-70
2021/05/25 10:29:55;;;;;;;0.32;0.20;;;11.10;99.90;;;;;;5088489;28;20039;-70
2021/05/25 10:32:26;;;;;;;1.05;0.40;;;11.10;99.90;;;;;;5093154;28;20020;-67
2021/05/25 10:34:53;;;;;;;1.27;0.30;;;11.10;99.90;;;;;;5110055;28;20076;-69
2021/05/25 10:37:20;;;;;;;2.85;0.95;;;11.20;99.90;;;;;;5109694;28;20058;-67
2021/05/25 10:39:51;;;;;;;1.17;0.45;;;11.90;99.90;;;;;;5108661;28;20027;-70
2021/05/25 10:42:20;;;;;;;0.70;0.20;;;12.00;99.90;;;;;;5089491;28;20024;-67
2021/05/25 10:44:57;;;;;;;1.63;0.32;;;12.10;99.90;;;;;;5087993;28;20036;-68
2021/05/25 10:48:08;;;;;;;0.40;0.10;;;12.20;99.90;;;;;;5087304;28;20054;-68
2021/05/25 10:50:36;;;;;;;0.35;0.15;;;11.90;99.90;;;;;;5083174;28;20127;-68
2021/05/25 10:53:04;;;;;;;1.25;0.30;;;11.80;99.90;;;;;;5089580;28;20020;-68
2021/05/25 10:55:39;;;;;;;3.53;0.30;;;11.60;99.90;;;;;;5089017;28;20028;-69
2021/05/25 10:58:35;;;;;;;1.98;0.20;;;11.50;99.90;;;;;;5089509;28;20024;-67
2021/05/25 11:01:08;;;;;;;0.75;0.20;;;11.60;99.90;;;;;;5087758;28;20076;-68
2021/05/25 11:03:34;;;;;;;0.60;0.57;;;11.80;99.90;;;;;;5085969;28;20111;-68
2021/05/25 11:06:02;;;;;;;1.80;0.60;;;11.80;99.90;;;;;;5089384;28;20111;-67
2021/05/25 11:08:29;;;;;;;1.92;0.43;;;11.70;99.90;;;;;;5088612;28;20035;-69
2021/05/25 11:11:10;;;;;;;3.50;0.50;;;11.50;99.90;;;;;;5089284;28;20047;-69
2021/05/25 11:13:43;;;;;;;3.20;0.75;;;11.60;99.90;;;;;;5088428;28;20024;-67
2021/05/25 11:16:28;;;;;;;1.55;0.40;;;11.30;99.90;;;;;;5087354;28;20062;-68
2021/05/25 11:19:01;;;;;;;3.08;0.32;;;11.20;99.90;;;;;;5087726;28;20863;-68
2021/05/25 11:24:37;;;;;;;4.90;1.00;;;11.20;99.90;;;;;;5088124;28;20024;-67
2021/05/25 11:27:10;;;;;;;3.72;0.75;;;11.30;99.90;;;;;;5065446;28;20115;-68
2021/05/25 11:29:58;;;;;;;1.48;0.60;;;11.50;99.90;;;;;;5065250;28;20036;-68
2021/05/25 11:32:48;;;;;;;2.38;0.65;;;11.80;99.90;;;;;;5052703;28;20469;-68
2021/05/25 11:35:25;;;;;;;0.52;0.35;;;11.90;99.90;;;;;;5085756;28;20028;-67
2021/05/25 11:37:54;;;;;;;3.75;0.32;;;11.90;99.90;;;;;;5069108;28;20028;-69
2021/05/25 11:40:22;;;;;;;3.03;0.60;;;11.70;99.90;;;;;;5085111;28;20028;-67
2021/05/25 11:42:49;;;;;;;3.60;0.63;;;11.70;99.90;;;;;;5085512;28;20032;-69
2021/05/25 11:45:17;;;;;;;2.58;0.75;;;11.70;99.90;;;;;;5069964;28;20092;-68
2021/05/25 11:47:43;;;;;;;0.77;0.45;;;11.80;99.90;;;;;;5070934;28;20040;-68
2021/05/25 11:50:13;;;;;;;2.90;0.65;;;11.90;99.90;;;;;;5071195;28;20139;-68
2021/05/25 11:52:40;;;;;;;0.40;0.25;;;11.80;99.90;;;;;;5087108;28;20051;-67
2021/05/25 11:55:10;;;;;;;1.52;0.30;;;11.70;99.90;;;;;;5054281;28;20114;-69
2021/05/25 11:57:41;;;;;;;1.30;0.40;;;11.50;99.90;;;;;;5094416;28;20322;-67
2021/05/25 12:00:11;;;;;;;3.55;0.40;;;11.60;99.90;;;;;;5108874;28;20034;-68
2021/05/25 12:02:37;;;;;;;1.52;0.38;;;11.70;99.90;;;;;;5108573;28;20128;-67
2021/05/25 12:05:15;;;;;;;2.17;0.68;;;11.80;99.90;;;;;;5110168;28;20027;-66
2021/05/25 12:07:43;;;;;;;11.45;0.77;;;11.90;99.90;;;;;;5108233;28;20028;-71
2021/05/25 12:10:15;;;;;;;2.78;0.70;;;12.50;99.90;;;;;;5110470;28;20024;-68
2021/05/25 12:12:45;;;;;;;2.55;0.57;;;13.20;99.90;;;;;;5109786;28;20039;-70
2021/05/25 12:15:16;;;;;;;3.05;0.35;;;13.60;99.90;;;;;;5108999;28;20027;-67
2021/05/25 12:17:45;;;;;;;3.57;0.17;;;14.10;99.90;;;;;;5109595;28;20024;-67
2021/05/25 12:20:18;;;;;;;0.95;0.40;;;14.20;99.90;;;;;;5109922;28;20118;-68
2021/05/25 12:22:47;;;;;;;3.05;0.80;;;14.50;99.90;;;;;;5108265;28;20027;-68
2021/05/25 12:25:22;;;;;;;2.22;0.57;;;14.10;99.90;;;;;;5108542;28;20114;-67
2021/05/25 12:27:55;;;;;;;0.50;0.20;;;14.20;99.90;;;;;;5110320;28;20070;-68
2021/05/25 12:30:22;;;;;;;1.45;0.22;;;13.80;99.90;;;;;;5109186;28;20118;-78
2021/05/25 12:32:50;;;;;;;3.80;0.47;;;13.70;99.90;;;;;;5109714;28;20030;-67
2021/05/25 12:35:21;;;;;;;2.22;0.40;;;13.60;99.90;;;;;;5108430;28;20130;-67
2021/05/25 12:38:01;;;;;;;3.10;0.30;;;13.50;99.90;;;;;;5113284;28;20053;-66
2021/05/25 12:40:27;;;;;;;4.10;0.45;;;13.30;99.90;;;;;;5113935;28;20038;-66
2021/05/25 12:42:52;;;;;;;2.22;0.40;;;13.30;99.90;;;;;;5112382;28;20360;-68
2021/05/25 12:45:18;;;;;;;1.38;0.40;;;13.30;99.90;;;;;;5112715;28;20131;-66
2021/05/25 12:47:56;;;;;;;1.13;0.43;;;13.30;99.90;;;;;;5112048;28;20081;-68
2021/05/25 12:50:27;;;;;;;4.20;0.30;;;13.30;99.90;;;;;;5114457;28;20596;-73
2021/05/25 12:53:05;;;;;;;4.28;0.43;;;13.50;99.90;;;;;;5113395;28;20035;-66
2021/05/25 12:55:32;;;;;;;1.90;0.40;;;13.50;99.90;;;;;;5111736;28;20141;-67
2021/05/25 12:57:58;;;;;;;2.35;0.35;;;13.40;99.90;;;;;;5111959;28;20116;-67
2021/05/25 13:00:37;;;;;;;0.80;0.25;;;13.20;99.90;;;;;;5111662;28;20387;-66